createdAt,value
2022-09-20T00:01:36.013Z,2.00
2022-09-20T00:04:06.984Z,2.28
2022-09-20T00:06:35.468Z,1.83
2022-09-20T00:09:04.056Z,1.98
2022-09-20T00:11:35.425Z,1.33
2022-09-20T00:14:08.459Z,1.35
2022-09-20T00:16:39.806Z,1.83
2022-09-20T00:19:09.080Z,2.20
2022-09-20T00:21:37.830Z,1.85
2022-09-20T00:24:06.115Z,2.28
2022-09-20T00:26:34.107Z,1.95
2022-09-20T00:29:01.722Z,1.85
2022-09-20T00:31:29.843Z,1.95
2022-09-20T00:34:17.361Z,2.15
2022-09-20T00:36:45.744Z,1.70
2022-09-20T00:39:16.165Z,2.13
2022-09-20T00:41:45.289Z,2.22
2022-09-20T00:44:42.779Z,2.35
2022-09-20T00:47:43.808Z,1.40
2022-09-20T00:50:36.215Z,2.28
2022-09-20T00:53:26.557Z,2.47
2022-09-20T00:56:09.899Z,2.28
2022-09-20T00:58:44.180Z,1.90
2022-09-20T01:01:12.081Z,2.67
2022-09-20T01:03:42.239Z,3.25
2022-09-20T01:06:15.403Z,3.45
2022-09-20T01:08:49.695Z,3.20
2022-09-20T01:11:19.211Z,2.58
2022-09-20T01:13:46.899Z,3.85
2022-09-20T01:16:17.344Z,3.53
2022-09-20T01:18:46.287Z,3.40
2022-09-20T01:21:15.170Z,4.07
2022-09-20T01:24:31.125Z,4.45
2022-09-20T01:27:22.451Z,4.72
2022-09-20T01:30:28.999Z,3.83
2022-09-20T01:33:18.754Z,4.22
2022-09-20T01:38:27.791Z,3.72
2022-09-20T01:41:01.802Z,3.42
2022-09-20T01:43:46.498Z,4.13
2022-09-20T01:46:33.618Z,3.22
2022-09-20T01:49:21.146Z,3.17
2022-09-20T01:52:03.006Z,2.70
2022-09-20T01:54:47.393Z,3.17
2022-09-20T01:57:57.875Z,3.00
2022-09-20T02:00:35.069Z,3.80
2022-09-20T02:03:29.306Z,3.78
2022-09-20T02:06:22.514Z,3.72
2022-09-20T02:09:20.524Z,3.45
2022-09-20T02:12:18.349Z,3.55
2022-09-20T02:15:34.044Z,3.42
2022-09-20T02:18:14.123Z,2.80
2022-09-20T02:21:01.676Z,3.35
2022-09-20T02:24:00.651Z,3.88
2022-09-20T02:26:59.284Z,2.88
2022-09-20T02:30:34.720Z,3.20
2022-09-20T02:33:17.100Z,3.03
2022-09-20T02:36:24.816Z,2.95
2022-09-20T02:39:08.459Z,2.70
2022-09-20T02:42:05.336Z,2.38
2022-09-20T02:44:54.678Z,3.13
2022-09-20T02:47:40.227Z,3.15
2022-09-20T02:50:45.581Z,2.35
2022-09-20T02:53:45.765Z,2.70
2022-09-20T02:56:29.974Z,2.40
2022-09-20T02:59:15.576Z,2.42
2022-09-20T03:02:10.947Z,2.72
2022-09-20T03:05:09.709Z,2.90
2022-09-20T03:08:18.794Z,1.98
2022-09-20T03:11:31.905Z,2.08
2022-09-20T03:14:16.119Z,2.83
2022-09-20T03:17:05.098Z,2.42
2022-09-20T03:20:09.508Z,2.00
2022-09-20T03:22:41.685Z,1.92
2022-09-20T03:25:47.081Z,2.28
2022-09-20T03:28:41.847Z,2.80
2022-09-20T03:31:26.951Z,1.92
2022-09-20T03:34:10.169Z,2.22
2022-09-20T03:37:34.525Z,2.22
2022-09-20T03:40:40.775Z,1.80
2022-09-20T03:46:27.020Z,1.70
2022-09-20T03:49:40.369Z,1.95
2022-09-20T03:52:19.737Z,2.30
2022-09-20T03:55:41.389Z,2.05
2022-09-20T03:58:28.142Z,1.40
2022-09-20T04:01:46.559Z,1.83
2022-09-20T04:04:25.705Z,2.17
2022-09-20T04:07:23.839Z,2.03
2022-09-20T04:10:18.832Z,1.75
2022-09-20T04:13:16.771Z,1.75
2022-09-20T04:16:12.806Z,1.77
2022-09-20T04:19:12.601Z,1.60
2022-09-20T04:22:05.682Z,1.45
2022-09-20T04:25:20.067Z,1.77
2022-09-20T04:28:00.136Z,2.47
2022-09-20T04:30:31.972Z,2.90
2022-09-20T04:33:29.997Z,2.80
2022-09-20T04:36:54.699Z,2.58
2022-09-20T04:40:06.319Z,2.35
2022-09-20T05:00:22.079Z,4.00
2022-09-20T05:03:32.208Z,2.83
2022-09-20T05:06:38.313Z,2.70
2022-09-20T05:09:29.824Z,2.90
2022-09-20T05:15:41.432Z,2.95
2022-09-20T05:18:26.507Z,3.53
2022-09-20T05:21:35.328Z,3.20
2022-09-20T05:24:32.043Z,3.10
2022-09-20T05:27:17.693Z,2.40
2022-09-20T05:30:38.142Z,2.45
2022-09-20T05:33:52.276Z,2.55
2022-09-20T05:36:41.676Z,3.28
2022-09-20T05:39:49.763Z,2.60
2022-09-20T05:43:01.213Z,2.55
2022-09-20T05:45:57.201Z,1.88
2022-09-20T05:48:28.080Z,2.20
2022-09-20T05:51:31.756Z,2.10
2022-09-20T05:54:54.786Z,2.42
2022-09-20T05:58:05.186Z,2.40
2022-09-20T06:01:07.223Z,2.55
2022-09-20T06:03:46.603Z,2.10
2022-09-20T06:06:40.005Z,2.53
2022-09-20T06:09:36.148Z,2.45
2022-09-20T06:12:16.397Z,2.17
2022-09-20T06:15:13.775Z,2.38
2022-09-20T06:18:00.098Z,2.35
2022-09-20T06:20:48.919Z,1.17
2022-09-20T06:23:18.408Z,1.38
2022-09-20T06:25:57.358Z,2.17
2022-09-20T06:28:34.279Z,1.77
2022-09-20T06:31:07.392Z,1.67
2022-09-20T06:33:45.347Z,2.65
2022-09-20T06:36:53.572Z,1.98
2022-09-20T06:39:59.081Z,2.13
2022-09-20T06:42:27.577Z,2.53
2022-09-20T06:44:55.839Z,2.47
2022-09-20T06:47:23.448Z,3.03
2022-09-20T06:49:50.916Z,2.70
2022-09-20T06:52:22.825Z,3.30
2022-09-20T06:54:54.375Z,2.80
2022-09-20T06:57:38.002Z,2.58
2022-09-20T07:00:10.309Z,2.90
2022-09-20T07:02:38.623Z,3.05
2022-09-20T07:05:07.558Z,2.35
2022-09-20T07:07:35.019Z,3.05
2022-09-20T07:10:04.255Z,1.98
2022-09-20T07:12:34.125Z,3.20
2022-09-20T07:17:29.362Z,3.15
2022-09-20T07:19:57.195Z,3.17
2022-09-20T07:22:24.665Z,2.92
2022-09-20T07:24:52.861Z,2.88
2022-09-20T07:27:21.325Z,3.28
2022-09-20T07:29:48.800Z,3.42
2022-09-20T07:32:17.862Z,3.00
2022-09-20T07:34:45.913Z,2.20
2022-09-20T07:37:14.045Z,2.83
2022-09-20T07:39:41.998Z,2.80
2022-09-20T07:42:09.493Z,3.05
2022-09-20T07:44:37.234Z,1.65
2022-09-20T07:47:06.433Z,1.40
2022-09-20T07:49:34.106Z,1.85
2022-09-20T07:52:02.578Z,2.42
2022-09-20T07:54:30.524Z,2.33
2022-09-20T07:56:58.036Z,3.00
2022-09-20T07:59:26.014Z,2.55
2022-09-20T08:01:53.866Z,2.35
2022-09-20T08:04:21.507Z,2.10
2022-09-20T08:06:49.077Z,2.28
2022-09-20T08:09:16.849Z,2.90
2022-09-20T08:11:44.657Z,3.08
2022-09-20T08:14:17.864Z,2.03
2022-09-20T08:16:50.576Z,1.90
2022-09-20T08:19:23.387Z,1.42
2022-09-20T08:21:53.978Z,1.30
2022-09-20T08:24:23.966Z,0.60
2022-09-20T08:26:52.124Z,1.23
2022-09-20T08:29:19.746Z,2.28
2022-09-20T08:31:48.151Z,1.92
2022-09-20T08:34:17.731Z,1.25
2022-09-20T08:36:47.225Z,1.08
2022-09-20T08:42:15.650Z,1.02
2022-09-20T08:45:01.550Z,1.05
2022-09-20T08:47:35.417Z,0.65
2022-09-20T08:50:10.132Z,0.40
2022-09-20T08:52:40.698Z,0.68
2022-09-20T08:57:55.496Z,1.08
2022-09-20T09:00:33.354Z,0.65
2022-09-20T09:03:14.348Z,0.63
2022-09-20T09:05:46.592Z,0.45
2022-09-20T09:08:18.041Z,0.70
2022-09-20T09:10:59.851Z,0.47
2022-09-20T09:13:34.745Z,0.60
2022-09-20T09:16:12.256Z,0.43
2022-09-20T09:18:43.545Z,0.32
2022-09-20T09:21:27.034Z,0.30
2022-09-20T09:24:19.749Z,0.77
2022-09-20T09:26:47.514Z,0.50
2022-09-20T09:29:24.677Z,0.77
2022-09-20T09:31:56.761Z,0.90
2022-09-20T09:34:38.770Z,0.30
2022-09-20T09:37:25.146Z,0.47
2022-09-20T09:40:24.745Z,0.30
2022-09-20T09:42:56.936Z,0.32
2022-09-20T09:45:38.765Z,0.28
2022-09-20T09:48:28.549Z,0.28
2022-09-20T09:51:23.590Z,1.00
2022-09-20T09:53:52.693Z,0.40
2022-09-20T09:59:30.067Z,0.38
2022-09-20T10:02:28.890Z,0.17
2022-09-20T10:05:33.142Z,0.10
2022-09-20T10:08:40.282Z,0.40
2022-09-20T10:11:48.061Z,0.85
2022-09-20T10:14:46.382Z,0.30
2022-09-20T10:17:25.797Z,0.82
2022-09-20T10:20:01.979Z,0.20
2022-09-20T10:26:45.852Z,0.77
2022-09-20T10:29:36.995Z,0.38
2022-09-20T10:32:19.846Z,0.60
2022-09-20T10:35:20.879Z,0.65
2022-09-20T10:38:14.710Z,0.30
2022-09-20T10:41:25.405Z,0.68
2022-09-20T10:44:18.895Z,0.28
2022-09-20T10:47:00.713Z,0.10
2022-09-20T10:49:40.874Z,0.10
2022-09-20T10:52:51.987Z,0.13
2022-09-20T10:56:08.196Z,0.10
2022-09-20T10:58:49.177Z,0.30
2022-09-20T11:01:32.055Z,0.10
2022-09-20T11:04:24.318Z,0.40
2022-09-20T11:07:13.139Z,0.15
2022-09-20T11:09:56.245Z,0.20
2022-09-20T11:12:42.543Z,0.10
2022-09-20T11:15:30.429Z,0.00
2022-09-20T11:18:23.230Z,0.13
2022-09-20T11:21:21.974Z,0.20
2022-09-20T11:23:58.667Z,0.10
2022-09-20T11:26:44.197Z,0.35
2022-09-20T11:29:58.748Z,0.10
2022-09-20T11:32:37.577Z,0.00
2022-09-20T11:35:11.413Z,0.00
2022-09-20T11:37:46.611Z,0.10
2022-09-20T11:40:28.508Z,0.28
2022-09-20T11:43:00.372Z,0.30
2022-09-20T11:45:30.114Z,0.10
2022-09-20T11:48:25.923Z,0.10
2022-09-20T11:51:45.413Z,0.00
2022-09-20T11:54:55.753Z,0.30
2022-09-20T11:57:24.655Z,0.20
2022-09-20T11:59:57.231Z,0.10
2022-09-20T12:02:53.974Z,0.08
2022-09-20T12:05:38.208Z,0.10
2022-09-20T12:08:26.072Z,0.10
2022-09-20T12:11:14.106Z,0.20
2022-09-20T12:13:58.204Z,0.25
2022-09-20T12:16:46.225Z,0.60
2022-09-20T12:19:34.423Z,0.00
2022-09-20T12:22:03.813Z,0.20
2022-09-20T12:24:43.183Z,0.10
2022-09-20T12:27:29.437Z,0.10
2022-09-20T12:30:20.954Z,0.20
2022-09-20T12:32:58.453Z,0.10
2022-09-20T12:35:44.528Z,0.90
2022-09-20T12:38:28.936Z,1.13
2022-09-20T12:41:09.071Z,1.73
2022-09-20T12:44:18.619Z,5.47
2022-09-20T12:47:17.520Z,7.55
2022-09-20T12:50:06.728Z,2.75
2022-09-20T12:52:58.531Z,0.98
2022-09-20T12:55:47.287Z,1.25
2022-09-20T12:58:14.928Z,1.03
2022-09-20T13:01:00.604Z,1.20
2022-09-20T13:03:37.400Z,1.08
2022-09-20T13:06:08.863Z,0.30
2022-09-20T13:08:55.463Z,0.40
2022-09-20T13:11:48.951Z,0.35
2022-09-20T13:14:22.717Z,0.40
2022-09-20T13:17:06.834Z,0.45
2022-09-20T13:19:41.343Z,0.28
2022-09-20T13:22:30.385Z,0.50
2022-09-20T13:25:03.350Z,0.40
2022-09-20T13:28:26.583Z,0.30
2022-09-20T13:31:22.274Z,0.20
2022-09-20T13:33:50.392Z,0.32
2022-09-20T13:36:30.315Z,0.30
2022-09-20T13:38:59.684Z,0.38
2022-09-20T13:41:32.569Z,0.10
2022-09-20T13:44:01.572Z,0.22
2022-09-20T13:46:33.086Z,0.80
2022-09-20T13:49:23.749Z,0.35
2022-09-20T13:51:52.155Z,0.20
2022-09-20T13:54:32.353Z,0.43
2022-09-20T13:57:12.564Z,0.10
2022-09-20T13:59:47.767Z,0.22
2022-09-20T14:02:31.604Z,0.13
2022-09-20T14:05:06.000Z,0.10
2022-09-20T14:07:36.613Z,0.10
2022-09-20T14:10:25.345Z,0.20
2022-09-20T14:12:54.672Z,0.20
2022-09-20T14:15:22.783Z,0.30
2022-09-20T14:17:53.295Z,0.00
2022-09-20T14:20:21.290Z,0.17
2022-09-20T14:22:48.894Z,0.10
2022-09-20T14:25:16.451Z,0.05
2022-09-20T14:27:44.444Z,0.10
2022-09-20T14:30:32.706Z,0.00
2022-09-20T14:33:01.006Z,0.40
2022-09-20T14:35:29.038Z,0.35
2022-09-20T14:38:07.036Z,0.57
2022-09-20T14:40:45.539Z,0.22
2022-09-20T14:43:34.669Z,0.20
2022-09-20T14:48:45.478Z,0.10
2022-09-20T14:51:16.369Z,0.00
2022-09-20T14:53:52.744Z,0.00
2022-09-20T14:56:35.571Z,0.10
2022-09-20T14:59:07.647Z,0.10
2022-09-20T15:01:41.152Z,0.30
2022-09-20T15:04:21.531Z,0.08
2022-09-20T15:06:50.944Z,0.32
2022-09-20T15:09:21.072Z,0.13
2022-09-20T15:12:01.117Z,0.20
2022-09-20T15:14:29.812Z,0.20
2022-09-20T15:17:00.785Z,0.10
2022-09-20T15:19:30.502Z,0.28
2022-09-20T15:21:59.453Z,0.60
2022-09-20T15:24:27.565Z,0.55
2022-09-20T15:26:55.131Z,0.60
2022-09-20T15:29:22.961Z,0.10
2022-09-20T15:31:50.589Z,0.80
2022-09-20T15:34:18.902Z,0.40
2022-09-20T15:36:46.790Z,0.77
2022-09-20T15:39:14.659Z,0.30
2022-09-20T15:41:43.869Z,0.25
2022-09-20T15:46:39.169Z,0.10
2022-09-20T15:49:08.973Z,0.30
2022-09-20T15:51:39.114Z,0.55
2022-09-20T15:54:07.947Z,0.55
2022-09-20T15:56:37.771Z,0.20
2022-09-20T15:59:08.741Z,0.20
2022-09-20T16:01:42.472Z,0.28
2022-09-20T16:04:15.714Z,0.13
2022-09-20T16:06:45.586Z,0.10
2022-09-20T16:09:14.035Z,0.20
2022-09-20T16:11:41.907Z,0.25
2022-09-20T16:14:09.559Z,0.13
2022-09-20T16:16:40.346Z,0.13
2022-09-20T16:19:21.011Z,1.17
2022-09-20T16:21:58.268Z,0.60
2022-09-20T16:24:34.011Z,0.30
2022-09-20T16:27:06.277Z,0.50
2022-09-20T16:29:34.653Z,0.55
2022-09-20T16:32:03.724Z,0.40
2022-09-20T16:34:35.228Z,1.10
2022-09-20T16:37:15.884Z,2.92
2022-09-20T16:39:44.466Z,0.38
2022-09-20T16:42:13.310Z,0.43
2022-09-20T16:44:43.027Z,0.35
2022-09-20T16:47:18.740Z,0.82
2022-09-20T16:49:47.293Z,0.60
2022-09-20T16:52:15.205Z,0.30
2022-09-20T16:54:42.843Z,0.50
2022-09-20T16:57:10.777Z,0.65
2022-09-20T16:59:38.552Z,0.95
2022-09-20T17:02:06.560Z,0.60
2022-09-20T17:04:34.095Z,0.75
2022-09-20T17:07:02.271Z,0.28
2022-09-20T17:09:29.906Z,0.35
2022-09-20T17:11:57.446Z,1.85
2022-09-20T17:14:25.781Z,1.30
2022-09-20T17:16:53.425Z,0.65
2022-09-20T17:19:21.325Z,0.85
2022-09-20T17:21:50.883Z,0.73
2022-09-20T17:26:49.006Z,0.65
2022-09-20T17:29:19.034Z,1.00
2022-09-20T17:31:54.979Z,1.10
2022-09-20T17:34:24.728Z,1.08
2022-09-20T17:36:55.165Z,0.80
2022-09-20T17:39:25.387Z,0.80
2022-09-20T17:41:53.592Z,0.30
2022-09-20T17:44:21.495Z,0.50
2022-09-20T17:46:51.538Z,0.50
2022-09-20T17:49:22.362Z,0.50
2022-09-20T17:51:52.678Z,0.65
2022-09-20T17:54:21.995Z,0.47
2022-09-20T17:56:52.358Z,0.60
2022-09-20T17:59:20.859Z,1.02
2022-09-20T18:01:51.073Z,0.98
2022-09-20T18:04:21.268Z,0.98
2022-09-20T18:06:52.955Z,0.52
2022-09-20T18:09:24.221Z,0.63
2022-09-20T18:11:54.974Z,1.10
2022-09-20T18:14:28.051Z,0.88
2022-09-20T18:17:01.130Z,0.52
2022-09-20T18:19:33.834Z,1.58
2022-09-20T18:22:02.894Z,0.85
2022-09-20T18:24:30.887Z,0.93
2022-09-20T18:27:00.719Z,1.20
2022-09-20T18:29:29.505Z,0.70
2022-09-20T18:31:59.707Z,0.97
2022-09-20T18:34:32.094Z,0.85
2022-09-20T18:37:01.348Z,0.57
2022-09-20T18:39:35.171Z,0.50
2022-09-20T18:42:03.889Z,0.50
2022-09-20T18:44:34.344Z,0.60
2022-09-20T18:47:04.994Z,0.80
2022-09-20T18:49:36.748Z,0.77
2022-09-20T18:52:04.825Z,0.82
2022-09-20T18:54:33.577Z,0.80
2022-09-20T18:57:02.210Z,1.30
2022-09-20T18:59:30.312Z,0.88
2022-09-20T19:02:35.322Z,0.50
2022-09-20T19:05:23.714Z,0.77
2022-09-20T19:08:34.502Z,0.60
2022-09-20T19:11:12.076Z,1.00
2022-09-20T19:14:07.176Z,1.02
2022-09-20T19:16:37.040Z,0.60
2022-09-20T19:19:45.567Z,1.27
2022-09-20T19:22:19.988Z,0.85
2022-09-20T19:25:25.247Z,0.98
2022-09-20T19:27:53.728Z,0.80
2022-09-20T19:30:22.757Z,0.65
2022-09-20T19:32:51.014Z,0.60
2022-09-20T19:35:35.967Z,0.52
2022-09-20T19:38:35.248Z,0.40
2022-09-20T19:41:39.710Z,0.52
2022-09-20T19:44:29.803Z,0.75
2022-09-20T19:47:01.952Z,0.47
2022-09-20T19:49:40.845Z,0.88
2022-09-20T19:52:13.044Z,1.20
2022-09-20T19:54:46.268Z,0.77
2022-09-20T19:57:29.062Z,1.45
2022-09-20T19:59:57.943Z,0.95
2022-09-20T20:02:26.117Z,1.10
2022-09-20T20:04:54.090Z,1.15
2022-09-20T20:07:40.512Z,1.92
2022-09-20T20:10:23.730Z,2.22
2022-09-20T20:13:03.100Z,1.98
2022-09-20T20:15:53.139Z,1.92
2022-09-20T20:18:51.005Z,1.48
2022-09-20T20:21:35.464Z,1.23
2022-09-20T20:24:09.410Z,1.73
2022-09-20T20:26:37.259Z,1.20
2022-09-20T20:29:05.002Z,1.00
2022-09-20T20:31:33.086Z,0.98
2022-09-20T20:34:00.996Z,1.00
2022-09-20T20:36:28.599Z,1.17
2022-09-20T20:38:56.777Z,1.00
2022-09-20T20:41:24.718Z,1.05
2022-09-20T20:43:57.280Z,1.00
2022-09-20T20:46:26.027Z,1.15
2022-09-20T20:48:54.056Z,0.77
2022-09-20T20:51:23.406Z,0.70
2022-09-20T20:53:55.592Z,0.65
2022-09-20T20:56:29.916Z,0.93
2022-09-20T20:59:02.110Z,1.00
2022-09-20T21:01:36.329Z,1.25
2022-09-20T21:04:07.884Z,0.65
2022-09-20T21:06:38.202Z,1.05
2022-09-20T21:09:07.349Z,0.98
2022-09-20T21:11:44.449Z,1.02
2022-09-20T21:14:12.903Z,1.15
2022-09-20T21:16:43.358Z,1.45
2022-09-20T21:19:15.684Z,1.27
2022-09-20T21:21:47.176Z,1.40
2022-09-20T21:24:17.433Z,1.60
2022-09-20T21:26:49.018Z,1.48
2022-09-20T21:29:17.085Z,1.90
2022-09-20T21:31:47.248Z,1.55
2022-09-20T21:34:16.218Z,1.55
2022-09-20T21:36:47.208Z,1.95
2022-09-20T21:39:15.022Z,2.85
2022-09-20T21:41:42.936Z,3.17
2022-09-20T21:44:11.602Z,2.83
2022-09-20T21:46:41.690Z,2.73
2022-09-20T21:49:11.874Z,2.10
2022-09-20T21:51:45.268Z,2.55
2022-09-20T21:54:13.164Z,2.88
2022-09-20T21:56:41.503Z,2.28
2022-09-20T21:59:09.516Z,2.45
2022-09-20T22:01:40.349Z,2.53
2022-09-20T22:04:10.828Z,2.53
2022-09-20T22:06:46.361Z,2.00
2022-09-20T22:09:17.030Z,1.98
2022-09-20T22:11:49.037Z,2.25
2022-09-20T22:14:19.630Z,1.85
2022-09-20T22:16:51.282Z,2.05
2022-09-20T22:19:19.294Z,1.25
2022-09-20T22:21:49.956Z,2.55
2022-09-20T22:24:19.001Z,1.55
2022-09-20T22:26:49.643Z,1.48
2022-09-20T22:29:19.115Z,2.33
2022-09-20T22:31:50.360Z,6.30
2022-09-20T22:34:21.766Z,3.97
2022-09-20T22:36:50.666Z,2.28
2022-09-20T22:39:18.853Z,2.60
2022-09-20T22:41:48.021Z,2.03
2022-09-20T22:44:16.036Z,1.40
2022-09-20T22:46:43.585Z,2.20
2022-09-20T22:49:11.115Z,1.88
2022-09-20T22:51:39.222Z,2.00
2022-09-20T22:54:10.569Z,1.80
2022-09-20T22:56:41.261Z,0.68
2022-09-20T22:59:12.514Z,1.50
2022-09-20T23:01:45.724Z,2.10
2022-09-20T23:04:20.165Z,1.83
2022-09-20T23:06:55.041Z,1.65
2022-09-20T23:09:26.446Z,2.67
2022-09-20T23:11:54.097Z,2.60
2022-09-20T23:14:23.412Z,2.13
2022-09-20T23:16:51.482Z,1.40
2022-09-20T23:19:19.057Z,1.70
2022-09-20T23:21:46.654Z,1.63
2022-09-20T23:24:16.623Z,1.52
2022-09-20T23:26:45.309Z,1.98
2022-09-20T23:29:16.061Z,1.83
2022-09-20T23:31:47.256Z,1.70
2022-09-20T23:34:17.372Z,1.42
2022-09-20T23:39:13.836Z,2.17
2022-09-20T23:41:42.227Z,1.52
2022-09-20T23:44:11.814Z,1.80
2022-09-20T23:46:39.638Z,2.17
2022-09-20T23:49:09.366Z,1.25
2022-09-20T23:51:37.747Z,1.52
2022-09-20T23:54:05.677Z,1.25
2022-09-20T23:56:33.778Z,1.92
2022-09-20T23:59:01.588Z,1.73
